sensor_id;sensor_type;location;lat;lon;timestamp;P1;durP1;ratioP1;P2;durP2;ratioP2
9062;SDS011;4567;42.118;24.746;2022-12-05T00:01:37;18.43;;;11.87;;
9062;SDS011;4567;42.118;24.746;2022-12-05T00:04:06;15.80;;;11.33;;
9062;SDS011;4567;42.118;24.746;2022-12-05T00:06:37;13.07;;;10.73;;
9062;SDS011;4567;42.118;24.746;2022-12-05T00:09:05;11.83;;;10.50;;
9062;SDS011;4567;42.118;24.746;2022-12-05T00:11:33;13.60;;;10.70;;
9062;SDS011;4567;42.118;24.746;2022-12-05T00:14:02;13.43;;;10.80;;
9062;SDS011;4567;42.118;24.746;2022-12-05T00:16:30;13.70;;;10.57;;
9062;SDS011;4567;42.118;24.746;2022-12-05T00:18:58;14.70;;;10.60;;
9062;SDS011;4567;42.118;24.746;2022-12-05T00:21:27;11.90;;;10.47;;
9062;SDS011;4567;42.118;24.746;2022-12-05T00:23:56;13.27;;;9.80;;
9062;SDS011;4567;42.118;24.746;2022-12-05T00:26:24;11.53;;;9.93;;
9062;SDS011;4567;42.118;24.746;2022-12-05T00:28:51;12.63;;;10.57;;
9062;SDS011;4567;42.118;24.746;2022-12-05T00:31:19;13.23;;;10.47;;
9062;SDS011;4567;42.118;24.746;2022-12-05T00:33:47;12.87;;;9.90;;
9062;SDS011;4567;42.118;24.746;2022-12-05T00:36:14;14.43;;;10.50;;
9062;SDS011;4567;42.118;24.746;2022-12-05T00:38:43;12.67;;;10.30;;
9062;SDS011;4567;42.118;24.746;2022-12-05T00:41:12;10.83;;;9.63;;
9062;SDS011;4567;42.118;24.746;2022-12-05T00:43:40;12.73;;;9.97;;
9062;SDS011;4567;42.118;24.746;2022-12-05T00:46:08;12.67;;;10.60;;
9062;SDS011;4567;42.118;24.746;2022-12-05T00:48:37;13.37;;;10.20;;
9062;SDS011;4567;42.118;24.746;2022-12-05T00:51:05;11.80;;;9.87;;
9062;SDS011;4567;42.118;24.746;2022-12-05T00:53:34;11.80;;;9.93;;
9062;SDS011;4567;42.118;24.746;2022-12-05T00:56:01;13.07;;;10.67;;
9062;SDS011;4567;42.118;24.746;2022-12-05T00:58:30;13.27;;;10.80;;
9062;SDS011;4567;42.118;24.746;2022-12-05T01:00:57;13.03;;;10.47;;
9062;SDS011;4567;42.118;24.746;2022-12-05T01:03:30;13.80;;;10.47;;
9062;SDS011;4567;42.118;24.746;2022-12-05T01:05:57;13.70;;;10.30;;
9062;SDS011;4567;42.118;24.746;2022-12-05T01:08:24;17.03;;;10.97;;
9062;SDS011;4567;42.118;24.746;2022-12-05T01:10:51;13.97;;;10.67;;
9062;SDS011;4567;42.118;24.746;2022-12-05T01:13:18;12.10;;;10.37;;
9062;SDS011;4567;42.118;24.746;2022-12-05T01:15:47;12.47;;;10.30;;
9062;SDS011;4567;42.118;24.746;2022-12-05T01:18:15;11.90;;;10.07;;
9062;SDS011;4567;42.118;24.746;2022-12-05T01:20:42;12.90;;;10.53;;
9062;SDS011;4567;42.118;24.746;2022-12-05T01:23:09;12.70;;;10.10;;
9062;SDS011;4567;42.118;24.746;2022-12-05T01:25:38;12.40;;;10.37;;
9062;SDS011;4567;42.118;24.746;2022-12-05T01:28:05;13.67;;;10.40;;
9062;SDS011;4567;42.118;24.746;2022-12-05T01:30:31;13.57;;;10.60;;
9062;SDS011;4567;42.118;24.746;2022-12-05T01:33:00;11.57;;;9.97;;
9062;SDS011;4567;42.118;24.746;2022-12-05T01:35:26;12.37;;;9.97;;
9062;SDS011;4567;42.118;24.746;2022-12-05T01:37:56;12.07;;;10.40;;
9062;SDS011;4567;42.118;24.746;2022-12-05T01:40:22;13.57;;;11.10;;
9062;SDS011;4567;42.118;24.746;2022-12-05T01:42:49;12.63;;;10.90;;
9062;SDS011;4567;42.118;24.746;2022-12-05T01:45:24;13.30;;;10.73;;
9062;SDS011;4567;42.118;24.746;2022-12-05T01:47:56;14.00;;;10.77;;
9062;SDS011;4567;42.118;24.746;2022-12-05T01:50:25;13.40;;;10.73;;
9062;SDS011;4567;42.118;24.746;2022-12-05T01:52:52;12.93;;;11.17;;
9062;SDS011;4567;42.118;24.746;2022-12-05T01:55:18;13.87;;;11.30;;
9062;SDS011;4567;42.118;24.746;2022-12-05T01:57:45;12.53;;;10.73;;
9062;SDS011;4567;42.118;24.746;2022-12-05T02:00:15;12.30;;;10.60;;
9062;SDS011;4567;42.118;24.746;2022-12-05T02:02:45;14.57;;;11.03;;
9062;SDS011;4567;42.118;24.746;2022-12-05T02:05:16;12.53;;;11.13;;
9062;SDS011;4567;42.118;24.746;2022-12-05T02:07:47;13.70;;;11.40;;
9062;SDS011;4567;42.118;24.746;2022-12-05T02:10:14;16.37;;;11.63;;
9062;SDS011;4567;42.118;24.746;2022-12-05T02:12:41;13.60;;;11.57;;
9062;SDS011;4567;42.118;24.746;2022-12-05T02:15:16;13.47;;;11.47;;
9062;SDS011;4567;42.118;24.746;2022-12-05T02:17:56;14.33;;;11.33;;
9062;SDS011;4567;42.118;24.746;2022-12-05T02:20:39;14.73;;;12.57;;
9062;SDS011;4567;42.118;24.746;2022-12-05T02:23:24;14.90;;;12.30;;
9062;SDS011;4567;42.118;24.746;2022-12-05T02:26:14;13.57;;;12.17;;
9062;SDS011;4567;42.118;24.746;2022-12-05T02:29:07;17.63;;;12.93;;
9062;SDS011;4567;42.118;24.746;2022-12-05T02:31:51;17.23;;;13.33;;
9062;SDS011;4567;42.118;24.746;2022-12-05T02:34:26;16.67;;;13.73;;
9062;SDS011;4567;42.118;24.746;2022-12-05T02:37:00;20.83;;;18.13;;
9062;SDS011;4567;42.118;24.746;2022-12-05T02:39:34;22.40;;;20.00;;
9062;SDS011;4567;42.118;24.746;2022-12-05T02:42:09;22.60;;;20.03;;
9062;SDS011;4567;42.118;24.746;2022-12-05T02:44:42;22.07;;;18.87;;
9062;SDS011;4567;42.118;24.746;2022-12-05T02:47:14;21.37;;;17.83;;
9062;SDS011;4567;42.118;24.746;2022-12-05T02:49:44;20.10;;;16.43;;
9062;SDS011;4567;42.118;24.746;2022-12-05T02:52:13;20.07;;;17.87;;
9062;SDS011;4567;42.118;24.746;2022-12-05T02:54:43;21.70;;;17.57;;
9062;SDS011;4567;42.118;24.746;2022-12-05T02:57:13;21.13;;;18.20;;
9062;SDS011;4567;42.118;24.746;2022-12-05T02:59:40;22.27;;;18.83;;
9062;SDS011;4567;42.118;24.746;2022-12-05T03:02:07;23.37;;;17.97;;
9062;SDS011;4567;42.118;24.746;2022-12-05T03:04:48;22.77;;;16.30;;
9062;SDS011;4567;42.118;24.746;2022-12-05T03:07:14;18.70;;;15.57;;
9062;SDS011;4567;42.118;24.746;2022-12-05T03:09:43;17.90;;;14.93;;
9062;SDS011;4567;42.118;24.746;2022-12-05T03:12:15;18.17;;;14.77;;
9062;SDS011;4567;42.118;24.746;2022-12-05T03:14:46;17.97;;;14.17;;
9062;SDS011;4567;42.118;24.746;2022-12-05T03:17:19;17.97;;;14.37;;
9062;SDS011;4567;42.118;24.746;2022-12-05T03:19:51;18.77;;;14.03;;
9062;SDS011;4567;42.118;24.746;2022-12-05T03:22:23;16.87;;;13.77;;
9062;SDS011;4567;42.118;24.746;2022-12-05T03:24:56;17.53;;;14.00;;
9062;SDS011;4567;42.118;24.746;2022-12-05T03:27:24;16.50;;;13.13;;
9062;SDS011;4567;42.118;24.746;2022-12-05T03:30:00;17.53;;;13.53;;
9062;SDS011;4567;42.118;24.746;2022-12-05T03:32:30;17.87;;;13.37;;
9062;SDS011;4567;42.118;24.746;2022-12-05T03:35:04;19.93;;;13.70;;
9062;SDS011;4567;42.118;24.746;2022-12-05T03:37:38;18.20;;;13.90;;
9062;SDS011;4567;42.118;24.746;2022-12-05T03:40:13;19.20;;;14.93;;
9062;SDS011;4567;42.118;24.746;2022-12-05T03:42:49;19.17;;;13.57;;
9062;SDS011;4567;42.118;24.746;2022-12-05T03:45:23;19.10;;;14.30;;
9062;SDS011;4567;42.118;24.746;2022-12-05T03:47:56;18.90;;;13.80;;
9062;SDS011;4567;42.118;24.746;2022-12-05T03:50:30;19.17;;;14.67;;
9062;SDS011;4567;42.118;24.746;2022-12-05T03:52:58;18.00;;;14.40;;
9062;SDS011;4567;42.118;24.746;2022-12-05T03:55:30;17.00;;;14.77;;
9062;SDS011;4567;42.118;24.746;2022-12-05T03:58:01;17.40;;;14.00;;
9062;SDS011;4567;42.118;24.746;2022-12-05T04:00:33;19.50;;;14.60;;
9062;SDS011;4567;42.118;24.746;2022-12-05T04:03:03;17.60;;;14.83;;
9062;SDS011;4567;42.118;24.746;2022-12-05T04:05:36;20.87;;;16.63;;
9062;SDS011;4567;42.118;24.746;2022-12-05T04:08:09;21.80;;;17.17;;
9062;SDS011;4567;42.118;24.746;2022-12-05T04:10:42;21.93;;;17.43;;
9062;SDS011;4567;42.118;24.746;2022-12-05T04:13:15;19.30;;;15.97;;
9062;SDS011;4567;42.118;24.746;2022-12-05T04:15:47;18.57;;;15.80;;
9062;SDS011;4567;42.118;24.746;2022-12-05T04:18:36;18.57;;;15.77;;
9062;SDS011;4567;42.118;24.746;2022-12-05T04:21:09;20.30;;;15.47;;
9062;SDS011;4567;42.118;24.746;2022-12-05T04:23:54;19.50;;;15.40;;
9062;SDS011;4567;42.118;24.746;2022-12-05T04:26:35;22.10;;;15.10;;
9062;SDS011;4567;42.118;24.746;2022-12-05T04:29:10;19.00;;;16.40;;
9062;SDS011;4567;42.118;24.746;2022-12-05T04:31:43;21.47;;;15.37;;
9062;SDS011;4567;42.118;24.746;2022-12-05T04:34:16;22.40;;;15.50;;
9062;SDS011;4567;42.118;24.746;2022-12-05T04:36:46;20.43;;;15.70;;
9062;SDS011;4567;42.118;24.746;2022-12-05T04:39:21;18.83;;;15.50;;
9062;SDS011;4567;42.118;24.746;2022-12-05T04:41:53;20.80;;;15.40;;
9062;SDS011;4567;42.118;24.746;2022-12-05T04:44:24;17.80;;;14.67;;
9062;SDS011;4567;42.118;24.746;2022-12-05T04:46:54;22.10;;;15.00;;
9062;SDS011;4567;42.118;24.746;2022-12-05T04:49:25;20.00;;;14.70;;
9062;SDS011;4567;42.118;24.746;2022-12-05T04:51:56;18.53;;;14.67;;
9062;SDS011;4567;42.118;24.746;2022-12-05T04:54:28;19.03;;;15.87;;
9062;SDS011;4567;42.118;24.746;2022-12-05T04:56:58;19.47;;;15.47;;
9062;SDS011;4567;42.118;24.746;2022-12-05T04:59:30;17.97;;;14.97;;
9062;SDS011;4567;42.118;24.746;2022-12-05T05:01:58;20.03;;;15.60;;
9062;SDS011;4567;42.118;24.746;2022-12-05T05:04:33;22.33;;;17.87;;
9062;SDS011;4567;42.118;24.746;2022-12-05T05:07:05;22.43;;;16.97;;
9062;SDS011;4567;42.118;24.746;2022-12-05T05:09:33;21.57;;;16.97;;
9062;SDS011;4567;42.118;24.746;2022-12-05T05:12:00;25.40;;;17.27;;
9062;SDS011;4567;42.118;24.746;2022-12-05T05:14:27;23.03;;;15.47;;
9062;SDS011;4567;42.118;24.746;2022-12-05T05:16:54;20.27;;;15.23;;
9062;SDS011;4567;42.118;24.746;2022-12-05T05:19:21;22.57;;;14.87;;
9062;SDS011;4567;42.118;24.746;2022-12-05T05:21:49;24.70;;;14.93;;
9062;SDS011;4567;42.118;24.746;2022-12-05T05:24:18;22.90;;;14.63;;
9062;SDS011;4567;42.118;24.746;2022-12-05T05:26:47;20.43;;;14.60;;
9062;SDS011;4567;42.118;24.746;2022-12-05T05:29:14;20.60;;;14.67;;
9062;SDS011;4567;42.118;24.746;2022-12-05T05:31:41;20.30;;;14.63;;
9062;SDS011;4567;42.118;24.746;2022-12-05T05:34:08;18.70;;;14.60;;
9062;SDS011;4567;42.118;24.746;2022-12-05T05:36:36;21.47;;;15.13;;
9062;SDS011;4567;42.118;24.746;2022-12-05T05:39:04;52.00;;;24.27;;
9062;SDS011;4567;42.118;24.746;2022-12-05T05:41:33;27.97;;;20.80;;
9062;SDS011;4567;42.118;24.746;2022-12-05T05:44:01;23.03;;;17.60;;
9062;SDS011;4567;42.118;24.746;2022-12-05T05:46:30;24.13;;;17.20;;
9062;SDS011;4567;42.118;24.746;2022-12-05T05:48:59;23.80;;;16.47;;
9062;SDS011;4567;42.118;24.746;2022-12-05T05:51:26;25.50;;;16.73;;
9062;SDS011;4567;42.118;24.746;2022-12-05T05:53:54;30.43;;;17.07;;
9062;SDS011;4567;42.118;24.746;2022-12-05T05:56:21;29.93;;;18.80;;
9062;SDS011;4567;42.118;24.746;2022-12-05T05:58:54;21.40;;;15.70;;
9062;SDS011;4567;42.118;24.746;2022-12-05T06:01:22;25.43;;;16.87;;
9062;SDS011;4567;42.118;24.746;2022-12-05T06:03:49;28.10;;;19.13;;
9062;SDS011;4567;42.118;24.746;2022-12-05T06:06:16;33.33;;;21.97;;
9062;SDS011;4567;42.118;24.746;2022-12-05T06:08:44;36.00;;;23.90;;
9062;SDS011;4567;42.118;24.746;2022-12-05T06:11:12;39.13;;;23.20;;
9062;SDS011;4567;42.118;24.746;2022-12-05T06:13:40;41.70;;;23.07;;
9062;SDS011;4567;42.118;24.746;2022-12-05T06:16:09;38.33;;;21.83;;
9062;SDS011;4567;42.118;24.746;2022-12-05T06:18:37;34.97;;;22.50;;
9062;SDS011;4567;42.118;24.746;2022-12-05T06:21:04;33.63;;;21.63;;
9062;SDS011;4567;42.118;24.746;2022-12-05T06:23:32;29.90;;;19.60;;
9062;SDS011;4567;42.118;24.746;2022-12-05T06:26:00;39.13;;;19.87;;
9062;SDS011;4567;42.118;24.746;2022-12-05T06:28:27;28.40;;;19.43;;
9062;SDS011;4567;42.118;24.746;2022-12-05T06:30:53;33.47;;;20.47;;
9062;SDS011;4567;42.118;24.746;2022-12-05T06:33:21;28.80;;;18.57;;
9062;SDS011;4567;42.118;24.746;2022-12-05T06:35:48;34.60;;;18.77;;
9062;SDS011;4567;42.118;24.746;2022-12-05T06:38:26;30.40;;;18.13;;
9062;SDS011;4567;42.118;24.746;2022-12-05T06:40:52;27.80;;;18.03;;
9062;SDS011;4567;42.118;24.746;2022-12-05T06:43:19;27.67;;;18.50;;
9062;SDS011;4567;42.118;24.746;2022-12-05T06:45:46;25.10;;;17.70;;
9062;SDS011;4567;42.118;24.746;2022-12-05T06:48:12;26.73;;;18.50;;
9062;SDS011;4567;42.118;24.746;2022-12-05T06:50:40;31.97;;;19.27;;
9062;SDS011;4567;42.118;24.746;2022-12-05T06:53:13;27.23;;;18.87;;
9062;SDS011;4567;42.118;24.746;2022-12-05T06:55:40;33.10;;;19.17;;
9062;SDS011;4567;42.118;24.746;2022-12-05T06:58:06;27.47;;;19.83;;
9062;SDS011;4567;42.118;24.746;2022-12-05T07:00:33;30.17;;;19.43;;
9062;SDS011;4567;42.118;24.746;2022-12-05T07:03:17;28.50;;;19.33;;
9062;SDS011;4567;42.118;24.746;2022-12-05T07:05:45;25.10;;;18.83;;
9062;SDS011;4567;42.118;24.746;2022-12-05T07:08:12;28.77;;;19.30;;
9062;SDS011;4567;42.118;24.746;2022-12-05T07:10:38;31.27;;;20.20;;
9062;SDS011;4567;42.118;24.746;2022-12-05T07:13:05;30.53;;;19.93;;
9062;SDS011;4567;42.118;24.746;2022-12-05T07:15:32;30.60;;;21.10;;
9062;SDS011;4567;42.118;24.746;2022-12-05T07:17:58;35.67;;;20.37;;
9062;SDS011;4567;42.118;24.746;2022-12-05T07:20:25;33.70;;;21.80;;
9062;SDS011;4567;42.118;24.746;2022-12-05T07:22:53;38.63;;;21.97;;
9062;SDS011;4567;42.118;24.746;2022-12-05T07:25:20;34.97;;;20.87;;
9062;SDS011;4567;42.118;24.746;2022-12-05T07:27:47;34.63;;;21.43;;
9062;SDS011;4567;42.118;24.746;2022-12-05T07:30:14;33.77;;;20.93;;
9062;SDS011;4567;42.118;24.746;2022-12-05T07:32:41;39.90;;;22.10;;
9062;SDS011;4567;42.118;24.746;2022-12-05T07:35:07;46.07;;;22.03;;
9062;SDS011;4567;42.118;24.746;2022-12-05T07:37:34;39.67;;;21.13;;
9062;SDS011;4567;42.118;24.746;2022-12-05T07:40:02;57.03;;;25.13;;
9062;SDS011;4567;42.118;24.746;2022-12-05T07:42:30;45.83;;;23.53;;
9062;SDS011;4567;42.118;24.746;2022-12-05T07:44:57;40.00;;;23.57;;
9062;SDS011;4567;42.118;24.746;2022-12-05T07:47:23;50.60;;;25.17;;
9062;SDS011;4567;42.118;24.746;2022-12-05T07:49:50;43.47;;;24.67;;
9062;SDS011;4567;42.118;24.746;2022-12-05T07:52:17;43.67;;;23.87;;
9062;SDS011;4567;42.118;24.746;2022-12-05T07:54:43;55.23;;;26.40;;
9062;SDS011;4567;42.118;24.746;2022-12-05T07:57:11;58.10;;;27.03;;
9062;SDS011;4567;42.118;24.746;2022-12-05T07:59:38;56.90;;;29.00;;
9062;SDS011;4567;42.118;24.746;2022-12-05T08:02:05;51.70;;;28.03;;
9062;SDS011;4567;42.118;24.746;2022-12-05T08:04:31;49.70;;;26.40;;
9062;SDS011;4567;42.118;24.746;2022-12-05T08:06:58;52.60;;;27.07;;
9062;SDS011;4567;42.118;24.746;2022-12-05T08:09:24;46.80;;;25.60;;
9062;SDS011;4567;42.118;24.746;2022-12-05T08:11:51;61.40;;;27.73;;
9062;SDS011;4567;42.118;24.746;2022-12-05T08:14:19;48.37;;;26.80;;
9062;SDS011;4567;42.118;24.746;2022-12-05T08:16:46;47.30;;;27.10;;
9062;SDS011;4567;42.118;24.746;2022-12-05T08:19:13;49.63;;;27.20;;
9062;SDS011;4567;42.118;24.746;2022-12-05T08:21:41;45.23;;;27.77;;
9062;SDS011;4567;42.118;24.746;2022-12-05T08:24:08;39.70;;;26.87;;
9062;SDS011;4567;42.118;24.746;2022-12-05T08:26:35;51.13;;;28.40;;
9062;SDS011;4567;42.118;24.746;2022-12-05T08:29:04;47.17;;;29.57;;
9062;SDS011;4567;42.118;24.746;2022-12-05T08:31:35;46.60;;;29.73;;
9062;SDS011;4567;42.118;24.746;2022-12-05T08:34:05;47.47;;;29.63;;
9062;SDS011;4567;42.118;24.746;2022-12-05T08:36:32;45.10;;;29.33;;
9062;SDS011;4567;42.118;24.746;2022-12-05T08:38:59;62.60;;;30.63;;
9062;SDS011;4567;42.118;24.746;2022-12-05T08:41:28;61.90;;;30.30;;
9062;SDS011;4567;42.118;24.746;2022-12-05T08:43:55;50.43;;;30.27;;
9062;SDS011;4567;42.118;24.746;2022-12-05T08:46:23;52.53;;;29.57;;
9062;SDS011;4567;42.118;24.746;2022-12-05T08:48:51;48.43;;;29.17;;
9062;SDS011;4567;42.118;24.746;2022-12-05T08:51:18;57.43;;;29.77;;
9062;SDS011;4567;42.118;24.746;2022-12-05T08:53:44;51.00;;;29.03;;
9062;SDS011;4567;42.118;24.746;2022-12-05T08:56:11;49.53;;;29.17;;
9062;SDS011;4567;42.118;24.746;2022-12-05T08:58:38;45.47;;;27.80;;
9062;SDS011;4567;42.118;24.746;2022-12-05T09:01:05;52.67;;;29.37;;
9062;SDS011;4567;42.118;24.746;2022-12-05T09:03:34;66.63;;;30.93;;
9062;SDS011;4567;42.118;24.746;2022-12-05T09:06:08;51.50;;;29.97;;
9062;SDS011;4567;42.118;24.746;2022-12-05T09:08:36;66.23;;;32.03;;
9062;SDS011;4567;42.118;24.746;2022-12-05T09:11:05;57.97;;;30.80;;
9062;SDS011;4567;42.118;24.746;2022-12-05T09:13:32;48.97;;;26.00;;
9062;SDS011;4567;42.118;24.746;2022-12-05T09:16:03;47.03;;;25.47;;
9062;SDS011;4567;42.118;24.746;2022-12-05T09:18:30;49.23;;;26.77;;
9062;SDS011;4567;42.118;24.746;2022-12-05T09:20:57;43.97;;;25.00;;
9062;SDS011;4567;42.118;24.746;2022-12-05T09:23:25;43.47;;;24.27;;
9062;SDS011;4567;42.118;24.746;2022-12-05T09:25:52;53.43;;;24.50;;
9062;SDS011;4567;42.118;24.746;2022-12-05T09:28:22;46.13;;;22.93;;
9062;SDS011;4567;42.118;24.746;2022-12-05T09:30:54;46.50;;;23.80;;
9062;SDS011;4567;42.118;24.746;2022-12-05T09:33:22;42.43;;;22.97;;
9062;SDS011;4567;42.118;24.746;2022-12-05T09:35:48;43.40;;;23.20;;
9062;SDS011;4567;42.118;24.746;2022-12-05T09:38:15;41.00;;;21.73;;
9062;SDS011;4567;42.118;24.746;2022-12-05T09:40:43;42.87;;;19.73;;
9062;SDS011;4567;42.118;24.746;2022-12-05T09:43:13;35.90;;;20.03;;
9062;SDS011;4567;42.118;24.746;2022-12-05T09:45:50;34.00;;;16.63;;
9062;SDS011;4567;42.118;24.746;2022-12-05T09:48:25;39.87;;;16.80;;
9062;SDS011;4567;42.118;24.746;2022-12-05T09:50:53;37.27;;;16.33;;
9062;SDS011;4567;42.118;24.746;2022-12-05T09:53:26;30.60;;;15.33;;
9062;SDS011;4567;42.118;24.746;2022-12-05T09:55:59;30.60;;;16.37;;
9062;SDS011;4567;42.118;24.746;2022-12-05T09:58:32;29.00;;;16.53;;
9062;SDS011;4567;42.118;24.746;2022-12-05T10:01:20;26.63;;;15.37;;
9062;SDS011;4567;42.118;24.746;2022-12-05T10:03:58;27.57;;;15.03;;
9062;SDS011;4567;42.118;24.746;2022-12-05T10:06:31;25.93;;;15.27;;
9062;SDS011;4567;42.118;24.746;2022-12-05T10:09:09;61.43;;;17.80;;
9062;SDS011;4567;42.118;24.746;2022-12-05T10:11:53;28.17;;;15.50;;
9062;SDS011;4567;42.118;24.746;2022-12-05T10:14:29;18.13;;;14.60;;
9062;SDS011;4567;42.118;24.746;2022-12-05T10:17:07;26.37;;;15.37;;
9062;SDS011;4567;42.118;24.746;2022-12-05T10:19:48;27.77;;;16.40;;
9062;SDS011;4567;42.118;24.746;2022-12-05T10:22:18;21.67;;;14.70;;
9062;SDS011;4567;42.118;24.746;2022-12-05T10:24:51;58.73;;;16.20;;
9062;SDS011;4567;42.118;24.746;2022-12-05T10:27:23;21.17;;;15.20;;
9062;SDS011;4567;42.118;24.746;2022-12-05T10:29:56;23.00;;;15.37;;
9062;SDS011;4567;42.118;24.746;2022-12-05T10:32:27;31.27;;;16.47;;
9062;SDS011;4567;42.118;24.746;2022-12-05T10:34:59;28.80;;;15.83;;
9062;SDS011;4567;42.118;24.746;2022-12-05T10:37:35;25.33;;;16.17;;
9062;SDS011;4567;42.118;24.746;2022-12-05T10:40:02;28.53;;;16.97;;
9062;SDS011;4567;42.118;24.746;2022-12-05T10:42:32;23.07;;;15.43;;
9062;SDS011;4567;42.118;24.746;2022-12-05T10:45:01;47.17;;;17.43;;
9062;SDS011;4567;42.118;24.746;2022-12-05T10:47:30;32.57;;;17.13;;
9062;SDS011;4567;42.118;24.746;2022-12-05T10:49:59;24.50;;;15.70;;
9062;SDS011;4567;42.118;24.746;2022-12-05T10:52:29;29.77;;;17.37;;
9062;SDS011;4567;42.118;24.746;2022-12-05T10:54:57;30.23;;;17.50;;
9062;SDS011;4567;42.118;24.746;2022-12-05T10:57:28;29.57;;;17.33;;
9062;SDS011;4567;42.118;24.746;2022-12-05T10:59:57;30.00;;;17.47;;
9062;SDS011;4567;42.118;24.746;2022-12-05T11:02:34;44.23;;;18.37;;
9062;SDS011;4567;42.118;24.746;2022-12-05T11:05:02;29.83;;;18.20;;
9062;SDS011;4567;42.118;24.746;2022-12-05T11:07:30;36.23;;;17.93;;
9062;SDS011;4567;42.118;24.746;2022-12-05T11:09:59;29.23;;;18.80;;
9062;SDS011;4567;42.118;24.746;2022-12-05T11:12:35;34.77;;;19.30;;
9062;SDS011;4567;42.118;24.746;2022-12-05T11:15:06;37.43;;;20.37;;
9062;SDS011;4567;42.118;24.746;2022-12-05T11:17:48;43.03;;;22.10;;
9062;SDS011;4567;42.118;24.746;2022-12-05T11:20:33;34.47;;;19.63;;
9062;SDS011;4567;42.118;24.746;2022-12-05T11:25:57;33.93;;;21.50;;
9062;SDS011;4567;42.118;24.746;2022-12-05T11:28:29;37.10;;;20.57;;
9062;SDS011;4567;42.118;24.746;2022-12-05T11:31:00;27.23;;;17.87;;
9062;SDS011;4567;42.118;24.746;2022-12-05T11:33:29;35.93;;;20.83;;
9062;SDS011;4567;42.118;24.746;2022-12-05T11:35:58;55.47;;;20.33;;
9062;SDS011;4567;42.118;24.746;2022-12-05T11:38:29;36.37;;;20.70;;
9062;SDS011;4567;42.118;24.746;2022-12-05T11:41:01;40.17;;;21.23;;
9062;SDS011;4567;42.118;24.746;2022-12-05T11:43:47;33.70;;;20.27;;
9062;SDS011;4567;42.118;24.746;2022-12-05T11:46:28;43.20;;;20.27;;
9062;SDS011;4567;42.118;24.746;2022-12-05T11:49:10;43.67;;;21.53;;
9062;SDS011;4567;42.118;24.746;2022-12-05T11:52:05;34.27;;;20.47;;
9062;SDS011;4567;42.118;24.746;2022-12-05T11:54:46;42.17;;;22.13;;
9062;SDS011;4567;42.118;24.746;2022-12-05T11:57:26;41.90;;;21.63;;
9062;SDS011;4567;42.118;24.746;2022-12-05T12:00:05;40.27;;;22.00;;
9062;SDS011;4567;42.118;24.746;2022-12-05T12:02:48;36.43;;;20.70;;
9062;SDS011;4567;42.118;24.746;2022-12-05T12:05:34;42.40;;;22.20;;
9062;SDS011;4567;42.118;24.746;2022-12-05T12:08:10;35.87;;;21.17;;
9062;SDS011;4567;42.118;24.746;2022-12-05T12:10:51;35.87;;;20.50;;
9062;SDS011;4567;42.118;24.746;2022-12-05T12:13:39;35.07;;;20.67;;
9062;SDS011;4567;42.118;24.746;2022-12-05T12:16:19;33.03;;;20.00;;
9062;SDS011;4567;42.118;24.746;2022-12-05T12:19:00;34.70;;;19.80;;
9062;SDS011;4567;42.118;24.746;2022-12-05T12:21:57;33.07;;;19.77;;
9062;SDS011;4567;42.118;24.746;2022-12-05T12:24:34;35.93;;;20.47;;
9062;SDS011;4567;42.118;24.746;2022-12-05T12:27:22;33.07;;;20.50;;
9062;SDS011;4567;42.118;24.746;2022-12-05T12:30:05;32.57;;;19.93;;
9062;SDS011;4567;42.118;24.746;2022-12-05T12:32:38;32.13;;;20.00;;
9062;SDS011;4567;42.118;24.746;2022-12-05T12:35:24;38.00;;;21.53;;
9062;SDS011;4567;42.118;24.746;2022-12-05T12:37:58;36.97;;;22.73;;
9062;SDS011;4567;42.118;24.746;2022-12-05T12:40:48;42.27;;;22.90;;
9062;SDS011;4567;42.118;24.746;2022-12-05T12:43:24;38.30;;;20.83;;
9062;SDS011;4567;42.118;24.746;2022-12-05T12:46:09;36.47;;;18.67;;
9062;SDS011;4567;42.118;24.746;2022-12-05T12:48:47;35.87;;;19.50;;
9062;SDS011;4567;42.118;24.746;2022-12-05T12:51:35;29.90;;;16.97;;
9062;SDS011;4567;42.118;24.746;2022-12-05T12:54:12;25.37;;;15.77;;
9062;SDS011;4567;42.118;24.746;2022-12-05T12:56:49;28.27;;;17.57;;
9062;SDS011;4567;42.118;24.746;2022-12-05T12:59:29;24.73;;;15.00;;
9062;SDS011;4567;42.118;24.746;2022-12-05T13:02:12;25.90;;;16.50;;
9062;SDS011;4567;42.118;24.746;2022-12-05T13:04:46;29.27;;;16.17;;
9062;SDS011;4567;42.118;24.746;2022-12-05T13:07:17;24.80;;;15.00;;
9062;SDS011;4567;42.118;24.746;2022-12-05T13:09:49;25.77;;;16.00;;
9062;SDS011;4567;42.118;24.746;2022-12-05T13:12:21;21.00;;;14.07;;
9062;SDS011;4567;42.118;24.746;2022-12-05T13:14:52;32.60;;;14.80;;
9062;SDS011;4567;42.118;24.746;2022-12-05T13:17:24;21.50;;;13.90;;
9062;SDS011;4567;42.118;24.746;2022-12-05T13:19:52;17.53;;;13.43;;
9062;SDS011;4567;42.118;24.746;2022-12-05T13:22:21;22.97;;;14.37;;
9062;SDS011;4567;42.118;24.746;2022-12-05T13:24:49;21.90;;;14.87;;
9062;SDS011;4567;42.118;24.746;2022-12-05T13:27:17;31.57;;;17.43;;
9062;SDS011;4567;42.118;24.746;2022-12-05T13:29:47;24.90;;;16.13;;
9062;SDS011;4567;42.118;24.746;2022-12-05T13:32:24;23.03;;;15.63;;
9062;SDS011;4567;42.118;24.746;2022-12-05T13:34:55;30.20;;;17.37;;
9062;SDS011;4567;42.118;24.746;2022-12-05T13:37:25;27.70;;;17.50;;
9062;SDS011;4567;42.118;24.746;2022-12-05T13:40:20;26.37;;;16.30;;
9062;SDS011;4567;42.118;24.746;2022-12-05T13:43:08;20.70;;;14.27;;
9062;SDS011;4567;42.118;24.746;2022-12-05T13:45:36;29.43;;;15.00;;
9062;SDS011;4567;42.118;24.746;2022-12-05T13:48:11;28.97;;;16.23;;
9062;SDS011;4567;42.118;24.746;2022-12-05T13:50:45;31.60;;;15.67;;
9062;SDS011;4567;42.118;24.746;2022-12-05T13:53:33;24.57;;;15.90;;
9062;SDS011;4567;42.118;24.746;2022-12-05T13:56:05;25.17;;;15.07;;
9062;SDS011;4567;42.118;24.746;2022-12-05T13:58:48;25.83;;;16.10;;
9062;SDS011;4567;42.118;24.746;2022-12-05T14:10:05;26.60;;;16.83;;
9062;SDS011;4567;42.118;24.746;2022-12-05T14:12:44;40.03;;;17.30;;
9062;SDS011;4567;42.118;24.746;2022-12-05T14:18:12;21.53;;;16.73;;
9062;SDS011;4567;42.118;24.746;2022-12-05T14:20:48;31.70;;;17.87;;
9062;SDS011;4567;42.118;24.746;2022-12-05T14:26:32;27.37;;;16.80;;
9062;SDS011;4567;42.118;24.746;2022-12-05T14:29:26;25.90;;;16.97;;
9062;SDS011;4567;42.118;24.746;2022-12-05T14:32:03;33.07;;;18.33;;
9062;SDS011;4567;42.118;24.746;2022-12-05T14:34:46;33.30;;;17.37;;
9062;SDS011;4567;42.118;24.746;2022-12-05T14:37:22;33.23;;;18.60;;
9062;SDS011;4567;42.118;24.746;2022-12-05T14:39:53;33.63;;;18.37;;
9062;SDS011;4567;42.118;24.746;2022-12-05T14:42:25;29.13;;;17.40;;
9062;SDS011;4567;42.118;24.746;2022-12-05T14:45:01;51.97;;;20.43;;
9062;SDS011;4567;42.118;24.746;2022-12-05T14:47:47;33.53;;;18.73;;
9062;SDS011;4567;42.118;24.746;2022-12-05T14:50:33;36.00;;;20.03;;
9062;SDS011;4567;42.118;24.746;2022-12-05T14:53:14;50.07;;;21.67;;
9062;SDS011;4567;42.118;24.746;2022-12-05T14:55:48;45.23;;;22.57;;
9062;SDS011;4567;42.118;24.746;2022-12-05T14:58:20;53.40;;;22.20;;
9062;SDS011;4567;42.118;24.746;2022-12-05T15:00:54;44.63;;;20.67;;
9062;SDS011;4567;42.118;24.746;2022-12-05T15:03:24;51.23;;;21.23;;
9062;SDS011;4567;42.118;24.746;2022-12-05T15:05:55;45.23;;;20.83;;
9062;SDS011;4567;42.118;24.746;2022-12-05T15:08:23;39.13;;;21.20;;
9062;SDS011;4567;42.118;24.746;2022-12-05T15:10:50;62.23;;;25.03;;
9062;SDS011;4567;42.118;24.746;2022-12-05T15:13:20;49.23;;;27.97;;
9062;SDS011;4567;42.118;24.746;2022-12-05T15:15:54;57.53;;;25.57;;
9062;SDS011;4567;42.118;24.746;2022-12-05T15:18:27;41.47;;;23.40;;
9062;SDS011;4567;42.118;24.746;2022-12-05T15:21:00;40.43;;;22.53;;